Search for airport 
image banner adimage banner adimage banner ad
image banner ad

N74 - Penns Cave

Located in Centre Hall, United States

ICAO - N74, IATA -

Data provided by Airmate  

General information

Coordinates: N40°53'24" W77°36'11"
Elevation is 1245 feet MSL.
Magnetic variation is -10° East
View others Airports in Pennsylvania

Operational data

Special qualification required
Current time UTC:
Current local time:
Weather at : KUNV - University Park ( 21 km )
METAR: KUNV 182253Z 20005KT 10SM CLR 24/07 A3027
TAF: KUNV 182225Z 1822/1918 VRB04KT P6SM SKC FM190100 00000KT P6SM SKC FM191600 VRB04KT P6SM SCT250
View NOTAMs / SUP AIP / TFR affecting this airport [VIEW]
Communications frequencies: [VIEW]

Runways:

RWY identifierQFULength (ft)Width (ft)SurfaceLDA (ft)
07250940ASPH
25250940ASPH

Airport contact information

Address: Centre Hall United States

Satellite view of N74